Time;durP1;ratioP1;P1;durP2;ratioP2;P2;SDS_P1;SDS_P2;PMS_P1;PMS_P2;Temp;Humidity;BMP_temperature;BMP_pressure;BME280_temperature;BME280_humidity;BME280_pressure;Samples;Min_cycle;Max_cycle;Signal;HPM_P1;HPM_P2
2022/12/08 00:09:20;;;;;;;45.92;19.98;;;;;;;0.27;100.00;100062.44;20905064;28;20052;-78
2022/12/08 00:14:54;;;;;;;46.92;19.95;;;;;;;0.22;100.00;100067.50;20903947;28;20489;-76
2022/12/08 00:24:56;;;;;;;44.58;18.67;;;;;;;0.15;100.00;100055.34;20972604;28;20053;-78
2022/12/08 00:34:57;;;;;;;40.97;17.65;;;;;;;0.22;100.00;100041.75;20985196;28;20098;-77
2022/12/08 00:44:58;;;;;;;41.58;17.58;;;;;;;0.25;100.00;100023.78;20985368;28;20056;-75
2022/12/08 00:54:59;;;;;;;38.42;16.90;;;;;;;0.33;100.00;100010.19;20984915;28;20052;-76
2022/12/08 01:05:01;;;;;;;45.50;19.08;;;;;;;0.40;100.00;100005.19;20986412;28;20052;-76
2022/12/08 01:15:02;;;;;;;42.72;17.70;;;;;;;0.70;100.00;100004.88;20983754;28;20087;-76
2022/12/08 01:25:04;;;;;;;39.97;16.13;;;;;;;0.89;100.00;100015.50;20918518;28;20505;-77
2022/12/08 01:35:05;;;;;;;40.03;15.98;;;;;;;1.00;100.00;100008.81;20916867;28;20115;-75
2022/12/08 01:45:06;;;;;;;41.88;16.30;;;;;;;1.14;100.00;100004.75;20915781;28;20057;-77
2022/12/08 01:55:07;;;;;;;36.65;15.50;;;;;;;1.24;100.00;99993.72;20943870;28;20094;-77
2022/12/08 02:05:09;;;;;;;37.42;15.40;;;;;;;1.28;100.00;99989.50;20916305;28;20493;-77
2022/12/08 02:15:10;;;;;;;38.10;15.50;;;;;;;1.33;100.00;99985.25;20920636;28;20056;-78
2022/12/08 02:25:11;;;;;;;36.95;16.38;;;;;;;1.34;100.00;99971.50;20986583;28;20053;-79
2022/12/08 02:35:12;;;;;;;33.80;16.15;;;;;;;1.31;100.00;99965.47;20980413;28;20048;-78
2022/12/08 02:45:14;;;;;;;34.58;15.82;;;;;;;1.06;100.00;99957.38;20976821;28;20115;-78
2022/12/08 02:55:15;;;;;;;39.30;16.35;;;;;;;0.88;100.00;99944.19;20993358;28;20463;-78
2022/12/08 03:05:16;;;;;;;40.03;17.27;;;;;;;0.72;100.00;99931.06;20991711;28;20582;-78
2022/12/08 03:15:18;;;;;;;37.95;16.73;;;;;;;0.68;100.00;99934.44;20996350;28;20052;-79
2022/12/08 03:25:19;;;;;;;36.63;14.80;;;;;;;0.61;100.00;99918.84;20940531;28;20107;-80
2022/12/08 03:35:20;;;;;;;33.97;14.57;;;;;;;0.67;100.00;99919.81;20923409;28;20504;-80
2022/12/08 03:45:21;;;;;;;36.72;15.00;;;;;;;0.67;100.00;99901.78;20917193;28;20059;-80
2022/12/08 03:55:23;;;;;;;34.30;14.18;;;;;;;0.74;100.00;99898.44;20915484;28;20091;-79
2022/12/08 04:05:24;;;;;;;33.38;14.73;;;;;;;0.89;100.00;99871.19;20906677;28;20488;-78
2022/12/08 04:15:25;;;;;;;36.42;14.93;;;;;;;0.93;100.00;99862.66;20907587;28;20099;-83
2022/12/08 04:25:27;;;;;;;34.35;14.55;;;;;;;1.06;100.00;99862.00;20983589;28;20053;-81
2022/12/08 04:35:28;;;;;;;30.50;13.80;;;;;;;1.12;100.00;99859.47;20990535;28;20052;-83
2022/12/08 04:45:30;;;;;;;30.45;13.13;;;;;;;1.08;100.00;99852.56;20989502;28;20196;-79
2022/12/08 04:55:32;;;;;;;36.33;14.40;;;;;;;1.13;100.00;99861.22;20992142;28;20501;-80
2022/12/08 05:05:33;;;;;;;37.83;16.00;;;;;;;1.09;100.00;99851.69;21030303;28;20052;-80
2022/12/08 05:15:34;;;;;;;37.58;15.70;;;;;;;1.12;100.00;99858.63;21038205;28;20064;-80
2022/12/08 05:25:35;;;;;;;37.67;15.68;;;;;;;1.20;100.00;99851.88;20963788;28;20106;-78
2022/12/08 05:35:37;;;;;;;44.25;18.55;;;;;;;1.20;100.00;99833.81;20959093;28;20112;-81
2022/12/08 05:45:38;;;;;;;39.90;17.08;;;;;;;1.24;100.00;99839.00;20923474;28;20059;-77
2022/12/08 05:55:39;;;;;;;37.70;17.70;;;;;;;1.30;100.00;99832.22;20915995;28;20099;-77
2022/12/08 06:05:41;;;;;;;40.90;16.90;;;;;;;1.36;100.00;99830.56;20915012;28;20464;-78
2022/12/08 06:15:42;;;;;;;41.70;18.48;;;;;;;1.35;100.00;99834.00;20938563;28;20048;-80
2022/12/08 06:25:43;;;;;;;39.10;16.30;;;;;;;1.45;100.00;99837.56;21022969;28;20066;-80
2022/12/08 06:35:45;;;;;;;36.85;16.48;;;;;;;1.66;100.00;99842.09;21006268;28;20094;-79
2022/12/08 06:45:46;;;;;;;38.15;16.00;;;;;;;1.54;100.00;99842.81;21013874;28;20060;-77
2022/12/08 06:55:47;;;;;;;33.92;15.20;;;;;;;1.50;100.00;99841.06;21034422;28;20116;-83
2022/12/08 07:06:00;;;;;;;34.17;15.27;;;;;;;1.49;100.00;99836.75;21031997;28;20064;-82
2022/12/08 07:16:04;;;;;;;37.25;16.27;;;;;;;1.63;100.00;99837.78;21025796;28;20613;-82
2022/12/08 07:26:06;;;;;;;38.67;15.40;;;;;;;1.71;100.00;99836.13;20961090;28;20086;-81
2022/12/08 07:36:07;;;;;;;38.67;17.10;;;;;;;1.74;100.00;99836.16;20957992;28;20087;-81
2022/12/08 07:46:09;;;;;;;32.13;15.60;;;;;;;1.80;100.00;99836.22;20988329;28;20056;-81
2022/12/08 07:56:10;;;;;;;34.60;16.20;;;;;;;1.94;100.00;99838.09;21038901;28;20059;-81
2022/12/08 08:06:11;;;;;;;36.65;16.35;;;;;;;1.91;100.00;99825.13;21011349;28;20051;-81
2022/12/08 08:16:13;;;;;;;39.90;18.42;;;;;;;1.99;100.00;99832.13;20994868;28;20060;-82
2022/12/08 08:26:14;;;;;;;43.83;19.02;;;;;;;2.09;100.00;99829.63;20988372;28;20128;-82
2022/12/08 08:36:15;;;;;;;38.42;18.63;;;;;;;2.25;100.00;99832.38;21001254;28;20048;-84
2022/12/08 08:46:16;;;;;;;36.45;17.35;;;;;;;2.33;100.00;99818.63;20992509;28;20098;-83
2022/12/08 08:56:18;;;;;;;36.10;17.48;;;;;;;2.41;100.00;99824.75;20938523;28;20485;-82
2022/12/08 09:06:19;;;;;;;36.80;17.20;;;;;;;2.65;100.00;99804.25;20928857;28;20123;-83
2022/12/08 09:16:21;;;;;;;32.42;15.48;;;;;;;2.73;100.00;99806.84;20930447;28;20056;-83
2022/12/08 09:26:22;;;;;;;30.88;13.85;;;;;;;2.91;100.00;99801.81;20983115;28;20063;-83
2022/12/08 09:36:23;;;;;;;34.75;16.13;;;;;;;3.00;100.00;99806.16;20988937;28;20102;-83
2022/12/08 09:46:25;;;;;;;27.20;13.77;;;;;;;3.12;100.00;99800.22;20994327;28;20295;-84
2022/12/08 09:56:28;;;;;;;28.73;14.48;;;;;;;3.43;100.00;99785.66;20995963;28;20080;-82
2022/12/08 10:06:30;;;;;;;24.33;11.07;;;;;;;3.59;100.00;99762.44;20935420;28;20057;-82
2022/12/08 10:16:31;;;;;;;21.67;9.93;;;;;;;3.55;100.00;99749.47;20917794;28;20059;-83
2022/12/08 10:26:33;;;;;;;19.27;9.55;;;;;;;3.50;100.00;99746.00;20999262;28;20080;-83
2022/12/08 10:36:34;;;;;;;20.42;10.55;;;;;;;3.48;100.00;99737.38;21001625;28;20053;-82
2022/12/08 10:46:35;;;;;;;18.73;9.50;;;;;;;3.74;100.00;99734.84;21004027;28;20746;-83
2022/12/08 10:56:36;;;;;;;20.33;9.75;;;;;;;3.78;100.00;99721.88;20997355;28;20083;-83
2022/12/08 11:06:38;;;;;;;17.35;8.15;;;;;;;3.67;100.00;99707.19;21038393;22;1146648;-77
2022/12/08 11:16:39;;;;;;;17.80;8.30;;;;;;;3.94;100.00;99696.84;21074782;28;20565;-76
2022/12/08 11:26:40;;;;;;;17.40;8.43;;;;;;;4.02;100.00;99684.75;21073873;28;20052;-74
2022/12/08 11:36:42;;;;;;;18.23;8.55;;;;;;;4.14;100.00;99670.94;21072735;28;20056;-76
2022/12/08 11:46:43;;;;;;;18.27;8.75;;;;;;;4.02;100.00;99665.75;21073119;28;20082;-76
2022/12/08 11:56:44;;;;;;;16.65;8.65;;;;;;;4.30;100.00;99653.63;21072360;28;20056;-76
2022/12/08 12:06:46;;;;;;;21.27;8.35;;;;;;;4.33;100.00;99646.72;21069762;28;20048;-76
2022/12/08 12:16:55;;;;;;;18.38;8.18;;;;;;;4.16;100.00;99635.50;21067846;28;20138;-75
2022/12/08 12:26:56;;;;;;;17.85;9.02;;;;;;;4.09;100.00;99626.03;20985639;28;20057;-74
2022/12/08 12:36:58;;;;;;;21.38;9.80;;;;;;;4.14;100.00;99624.31;20984955;28;20109;-72
2022/12/08 12:46:59;;;;;;;19.25;10.70;;;;;;;4.32;100.00;99626.84;20984310;28;20083;-74
2022/12/08 12:57:00;;;;;;;20.52;9.80;;;;;;;4.43;100.00;99618.19;20984760;28;20094;-74
2022/12/08 13:07:02;;;;;;;17.35;8.98;;;;;;;4.16;100.00;99619.97;20983604;28;20056;-72
2022/12/08 13:17:03;;;;;;;19.50;9.55;;;;;;;4.30;100.00;99610.44;20985988;28;20052;-73
2022/12/08 13:27:04;;;;;;;16.83;9.65;;;;;;;4.13;100.00;99613.94;21081334;28;20059;-72
2022/12/08 13:37:06;;;;;;;20.85;11.10;;;;;;;3.97;100.00;99597.56;21080916;28;20113;-72
2022/12/08 13:47:07;;;;;;;25.70;10.68;;;;;;;4.05;100.00;99595.81;21080707;28;20450;-74
2022/12/08 13:57:28;;;;;;;20.23;10.45;;;;;;;4.02;100.00;99590.63;21079563;28;20091;-74
2022/12/08 14:07:30;;;;;;;21.23;10.65;;;;;;;4.07;100.00;99599.25;21077385;28;20044;-74
2022/12/08 14:17:31;;;;;;;25.58;10.52;;;;;;;4.03;100.00;99595.84;21069853;28;20445;-75
2022/12/08 14:27:32;;;;;;;22.25;10.60;;;;;;;3.95;100.00;99591.53;21002126;28;20052;-74
2022/12/08 14:37:33;;;;;;;21.38;10.93;;;;;;;3.89;100.00;99594.13;20991298;28;20064;-74
2022/12/08 14:47:35;;;;;;;19.17;10.35;;;;;;;3.88;100.00;99601.06;20991024;28;20464;-75
2022/12/08 14:57:36;;;;;;;20.67;10.82;;;;;;;3.80;100.00;99602.78;20991354;28;20106;-74
2022/12/08 15:07:37;;;;;;;23.48;10.25;;;;;;;3.74;100.00;99601.06;20989701;28;20052;-75
2022/12/08 15:17:38;;;;;;;18.48;9.38;;;;;;;3.71;100.00;99595.88;20997808;28;20056;-75
2022/12/08 15:27:40;;;;;;;22.25;10.13;;;;;;;3.60;100.00;99589.84;21072381;28;20060;-75
2022/12/08 15:37:50;;;;;;;17.67;8.50;;;;;;;3.54;100.00;99587.25;21071515;28;20707;-75
2022/12/08 15:47:51;;;;;;;17.17;9.05;;;;;;;3.53;100.00;99586.41;21070519;28;20097;-76
2022/12/08 15:57:53;;;;;;;22.38;9.63;;;;;;;3.47;100.00;99575.19;21069584;28;20129;-75
2022/12/08 16:08:15;;;;;;;19.92;8.65;;;;;;;3.42;100.00;99569.16;21068658;28;20055;-75
2022/12/08 16:18:36;;;;;;;17.23;8.55;;;;;;;3.34;100.00;99575.19;21067201;28;20087;-74
2022/12/08 16:28:37;;;;;;;17.25;8.23;;;;;;;3.19;100.00;99572.59;21065906;28;20052;-74
2022/12/08 16:38:54;;;;;;;16.85;8.38;;;;;;;3.20;100.00;99556.19;21066451;28;20416;-76
2022/12/08 16:48:57;;;;;;;19.73;8.85;;;;;;;3.18;100.00;99542.41;21066807;28;20101;-76
2022/12/08 16:58:59;;;;;;;17.10;9.00;;;;;;;3.20;100.00;99550.16;21065735;28;20060;-76
2022/12/08 17:09:00;;;;;;;28.83;13.25;;;;;;;3.15;100.00;99547.59;21038963;23;20056;-76
2022/12/08 17:19:01;;;;;;;33.58;14.60;;;;;;;3.13;100.00;99538.13;20997997;28;20462;-73
2022/12/08 17:29:02;;;;;;;19.92;11.00;;;;;;;3.10;100.00;99541.53;20985999;28;20048;-75
2022/12/08 17:39:04;;;;;;;24.42;12.38;;;;;;;3.09;100.00;99537.25;21059314;28;20057;-74
2022/12/08 17:49:05;;;;;;;25.65;12.35;;;;;;;3.04;100.00;99536.38;20973667;28;20052;-74
2022/12/08 17:59:06;;;;;;;26.40;14.52;;;;;;;2.98;100.00;99532.06;20972556;28;20102;-74
2022/12/08 18:09:08;;;;;;;22.85;13.38;;;;;;;3.00;100.00;99547.56;20979458;28;20095;-75
2022/12/08 18:19:09;;;;;;;23.33;13.98;;;;;;;2.99;100.00;99554.47;21011835;28;20481;-74
2022/12/08 18:29:10;;;;;;;30.65;17.40;;;;;;;2.93;100.00;99545.84;21035327;28;20052;-74
2022/12/08 18:39:11;;;;;;;27.23;15.05;;;;;;;2.96;100.00;99540.66;21062404;28;20074;-77
2022/12/08 18:49:13;;;;;;;27.23;14.48;;;;;;;2.85;100.00;99532.03;20983777;28;20050;-74
2022/12/08 18:59:14;;;;;;;41.22;19.90;;;;;;;2.88;100.00;99538.09;20982157;28;20444;-75
2022/12/08 19:09:15;;;;;;;33.78;18.30;;;;;;;2.78;100.00;99519.13;20983851;28;20056;-75
2022/12/08 19:19:17;;;;;;;30.23;16.27;;;;;;;2.83;100.00;99524.31;21023840;28;20106;-74
2022/12/08 19:29:18;;;;;;;28.75;15.40;;;;;;;2.79;100.00;99527.72;21050799;28;20458;-75
2022/12/08 19:49:39;;;;;;;35.28;18.83;;;;;;;2.78;100.00;99511.38;20981318;28;20485;-72
2022/12/08 19:59:40;;;;;;;33.25;15.70;;;;;;;2.82;100.00;99517.38;20959414;28;20044;-73
2022/12/08 20:09:41;;;;;;;37.50;19.13;;;;;;;2.78;100.00;99506.19;20978639;28;20098;-73
2022/12/08 20:19:43;;;;;;;37.97;19.00;;;;;;;2.78;100.00;99493.28;20997776;28;20044;-73
2022/12/08 20:29:44;;;;;;;41.17;19.67;;;;;;;2.70;100.00;99494.97;21020324;28;20470;-73
2022/12/08 20:39:45;;;;;;;37.25;19.60;;;;;;;2.71;100.00;99499.28;20987578;28;20501;-73
2022/12/08 20:49:47;;;;;;;61.92;25.73;;;;;;;2.67;100.00;99497.53;20975025;28;20480;-72
2022/12/08 20:59:48;;;;;;;37.03;18.80;;;;;;;2.60;100.00;99490.66;20976088;28;20052;-73
2022/12/08 21:09:49;;;;;;;35.88;17.50;;;;;;;2.50;100.00;99502.69;20974792;28;20069;-73
2022/12/08 21:19:51;;;;;;;37.55;18.25;;;;;;;2.52;100.00;99497.53;21002775;28;20048;-73
2022/12/08 21:29:52;;;;;;;34.25;18.23;;;;;;;2.54;100.00;99481.19;21057907;28;20158;-72
2022/12/08 21:39:53;;;;;;;34.38;16.90;;;;;;;2.54;100.00;99485.50;21058247;28;20048;-72
2022/12/08 21:49:55;;;;;;;30.52;16.08;;;;;;;2.49;100.00;99492.34;21074469;28;20506;-75
2022/12/08 21:59:57;;;;;;;38.85;21.85;;;;;;;2.51;100.00;99488.06;21072272;28;20542;-74
2022/12/08 22:09:58;;;;;;;34.55;18.75;;;;;;;2.41;100.00;99494.06;21063900;28;20048;-74
2022/12/08 22:19:59;;;;;;;44.28;21.52;;;;;;;2.43;100.00;99505.25;21095901;28;20611;-73
2022/12/08 22:30:01;;;;;;;40.30;20.67;;;;;;;2.44;100.00;99500.06;21071261;28;20477;-73
2022/12/08 22:40:03;;;;;;;38.88;19.55;;;;;;;2.34;100.00;99487.13;21070279;28;20492;-72
2022/12/08 22:50:04;;;;;;;39.15;18.98;;;;;;;2.25;100.00;99478.53;21068799;28;20078;-72
2022/12/08 23:00:08;;;;;;;36.40;18.40;;;;;;;2.16;100.00;99470.75;21067512;28;20055;-73
2022/12/08 23:10:10;;;;;;;36.77;18.67;;;;;;;2.00;100.00;99467.22;21025805;22;20691;-75
2022/12/08 23:20:12;;;;;;;39.30;18.95;;;;;;;1.89;100.00;99462.91;20990939;28;20409;-74
2022/12/08 23:30:14;;;;;;;39.00;19.50;;;;;;;1.79;100.00;99457.69;20988464;28;20048;-73
2022/12/08 23:40:15;;;;;;;40.15;20.45;;;;;;;1.72;100.00;99440.44;20989829;28;20048;-74
2022/12/08 23:50:16;;;;;;;40.25;19.75;;;;;;;1.57;100.00;99424.03;20986563;28;20064;-73
